Riverdale, Iowa
Current Conditions -  °F | °C
As of 10:52 PM on Saturday 25 Oct 2014 (Local Time) from KDVN Reporting Station
Clear Clear  
Wind Chill: 39°   Ceiling: Unl
Heat Index: 42°   Visibility: 10mi
Dew Point: 35°   Wind: 5mph
Humidity: 76%   Direction: 310°NW
Pressure: 30.04"   Gusts: NA
Location:  41.5718°N, 90.4678°W
Report Text: KDVN 260352Z AUTO 31004KT 10SM CLR 06/02 A3004 RMK AO2 SLP175 T00560017 TSNO
Loading
Personal Weather Stations






























Interactive Weather Map
Tropical Storm Tracking
New forecast layout! Learn more

10-Day Weather Forecast

Advertisements
Track Severe Weather on mobile